Latest Weather Observations for Kadina

IDS60801

Issued at 9:35 pm CDT Friday 31 October 2014 (issued every 30 minutes, with the page automatically refreshed every 10 minutes)

About weather observations | Map of weather stations | Latest weather observations for SA | Other Formats
Station Details ID: 022050 Name: KADINA AWS Lat: -33.97 Lon: 137.66 Height: 41.14 m
Data from the previous 72 hours. | See also: Recent months at Kadina
Date/Time
CDT
Temp
°C
App
Temp
°C
Dew
Point
Rel
Hum
%
Delta-T
°C
Wind Press
QNH
hPa
Press
MSL
hPa
Rain
since 9 am
mm
Dir
 
Spd
km/h
Gust
km/h
Spd
kts
Gust
kts
31/09:30pm 15.9 13.8 13.7 87 1.2 S 17 26 9 14 1007.6 - 0.4
31/09:00pm 16.1 14.7 14.5 90 0.9 SSW 15 24 8 13 1006.3 1006.1 0.4
31/08:30pm 16.0 13.8 14.4 90 0.9 S 19 30 10 16 1004.9 - 0.4
31/08:00pm 17.4 12.4 13.5 78 2.2 SSW 32 48 17 26 1004.8 - 0.0
31/07:38pm 17.4 11.0 13.3 77 2.3 SSW 39 57 21 31 1004.4 - 0.0
31/07:30pm 17.5 10.4 13.4 77 2.3 SSW 43 57 23 31 1004.2 - 0.0
31/07:00pm 18.3 11.4 14.4 78 2.3 SSW 44 63 24 34 1004.0 - 0.0
31/06:33pm 20.7 14.0 13.4 63 4.2 SSW 41 59 22 32 1002.7 - 0.0
31/06:30pm 21.1 14.3 13.0 60 4.6 SSW 41 54 22 29 1002.7 - 0.0
31/06:00pm 24.7 17.8 10.2 40 8.1 SSW 37 48 20 26 1001.7 1001.5 0.0
31/05:30pm 26.0 19.1 10.2 37 8.8 SSW 37 52 20 28 1001.8 - 0.0
31/05:00pm 27.0 21.0 10.7 36 9.2 SSW 33 48 18 26 1001.4 - 0.0
31/04:30pm 27.5 21.2 9.8 33 9.9 SSW 33 43 18 23 1001.4 - 0.0
31/04:00pm 29.0 22.0 7.0 25 11.8 SSW 33 46 18 25 1001.0 - 0.0
31/03:30pm 30.2 22.4 6.8 23 12.6 SW 37 52 20 28 1000.8 - 0.0
31/03:09pm 31.5 21.9 3.5 17 14.4 WSW 43 56 23 30 1000.7 - 0.0
31/03:00pm 34.7 29.3 1.1 12 17.0 SW 19 28 10 15 1000.5 1000.3 0.0
31/02:30pm 34.5 29.8 3.1 14 16.3 SSW 17 26 9 14 1000.9 - 0.0
31/02:00pm 33.6 29.1 6.0 18 14.9 NW 19 28 10 15 1001.6 - 0.0
31/01:30pm 34.3 28.4 5.8 17 15.4 NW 26 37 14 20 1001.9 - 0.0
31/01:00pm 34.7 28.5 6.1 17 15.6 NNW 28 41 15 22 1002.2 - 0.0
31/12:30pm 33.7 26.6 5.3 17 15.2 N 32 44 17 24 1002.5 - 0.0
31/12:00pm 32.7 26.3 5.3 18 14.6 N 28 37 15 20 1002.9 1002.7 0.0
31/11:30am 31.5 24.9 4.3 18 14.2 N 28 39 15 21 1003.4 - 0.0
31/11:00am 31.1 23.3 4.8 19 13.8 N 35 46 19 25 1003.5 - 0.0
31/10:30am 29.5 21.2 4.2 20 13.0 N 37 48 20 26 1003.8 - 0.0
31/10:00am 29.9 21.2 2.2 17 13.7 N 37 50 20 27 1004.0 - 0.0
31/09:30am 30.0 21.7 -0.4 14 14.4 N 33 44 18 24 1004.3 - 0.0
31/09:00am 29.4 22.9 0.1 15 14.0 NNE 24 33 13 18 1004.5 1004.3 0.0
31/08:30am 27.1 21.1 0.8 18 12.5 NNE 22 28 12 15 1004.5 - 0.0
31/08:00am 24.1 18.5 1.1 22 10.7 NNE 20 26 11 14 1005.0 - 0.0
31/07:30am 20.4 15.5 1.8 29 8.6 NE 17 20 9 11 1005.1 - 0.0
31/07:00am 18.4 13.9 2.3 34 7.4 ENE 15 19 8 10 1005.0 - 0.0
31/06:55am 17.5 13.2 3.0 38 6.7 ENE 15 19 8 10 1005.0 - 0.0
31/06:30am 12.4 9.0 5.8 64 3.1 ENE 13 15 7 8 1005.0 - 0.0
31/06:00am 11.8 7.6 5.9 67 2.8 E 17 19 9 10 1005.3 1005.1 0.0
31/05:30am 12.2 8.9 6.3 67 2.8 E 13 15 7 8 1005.8 - 0.0
31/05:00am 11.7 8.1 6.6 71 2.4 E 15 19 8 10 1005.8 - 0.0
31/04:30am 10.7 7.2 7.0 78 1.8 E 15 17 8 9 1006.2 - 0.0
31/04:00am 10.9 7.9 7.6 80 1.6 ESE 13 15 7 8 1006.7 - 0.0
31/03:30am 10.9 7.6 8.0 82 1.4 ESE 15 17 8 9 1007.2 - 0.0
31/03:00am 11.1 7.7 7.8 80 1.6 ESE 15 17 8 9 1007.7 1007.5 0.0
31/02:30am 10.5 7.1 7.6 82 1.4 ESE 15 17 8 9 1007.9 - 0.0
31/02:00am 11.7 8.2 8.7 82 1.5 ESE 17 19 9 10 1008.1 - 0.0
31/01:30am 12.5 9.4 8.8 78 1.9 ESE 15 19 8 10 1008.8 - 0.0
31/01:00am 12.9 9.0 8.8 76 2.1 ESE 19 20 10 11 1009.4 - 0.0
31/12:30am 13.7 10.3 9.0 73 2.4 E 17 19 9 10 1010.0 - 0.0
31/12:00am 14.8 11.2 8.3 65 3.3 ESE 17 19 9 10 1010.3 1010.1 0.0
 
Date/Time
CDT
Temp
°C
App
Temp
°C
Dew
Point
Rel
Hum
%
Delta-T
°C
Wind Press
QNH
hPa
Press
MSL
hPa
Rain
since 9 am
mm
Dir
 
Spd
km/h
Gust
km/h
Spd
kts
Gust
kts
30/11:30pm 15.7 12.3 9.1 65 3.4 ESE 17 20 9 11 1010.3 - 0.0
30/11:00pm 15.8 12.5 9.7 67 3.2 E 17 20 9 11 1010.7 - 0.0
30/10:30pm 15.6 11.7 8.8 64 3.5 E 19 20 10 11 1011.0 - 0.0
30/10:00pm 15.6 11.9 7.9 60 3.9 ESE 17 20 9 11 1011.4 - 0.0
30/09:30pm 15.9 12.8 8.9 63 3.6 ESE 15 17 8 9 1011.6 - 0.0
30/09:00pm 16.6 13.2 9.3 62 3.8 ESE 17 20 9 11 1011.4 1011.2 0.0
30/08:30pm 17.5 14.3 8.4 55 4.7 ESE 15 17 8 9 1011.6 - 0.0
30/08:00pm 19.4 14.1 -0.6 26 8.7 SSE 17 20 9 11 1011.5 - 0.0
30/07:30pm 21.3 17.0 -1.9 21 10.0 S 11 13 6 7 1011.4 - 0.0
30/07:00pm 23.4 18.9 -3.0 17 11.3 S 11 13 6 7 1011.3 - 0.0
30/06:30pm 25.1 19.9 -2.5 16 12.1 SW 15 19 8 10 1011.4 - 0.0
30/06:00pm 26.1 21.6 2.1 21 11.6 S 15 20 8 11 1011.3 1011.1 0.0
30/05:30pm 26.3 21.5 0.1 18 12.2 SW 15 20 8 11 1011.5 - 0.0
30/05:00pm 25.1 20.6 1.9 22 11.1 SW 15 20 8 11 1011.8 - 0.0
30/04:30pm 24.2 19.9 6.9 33 9.0 WSW 19 28 10 15 1012.1 - 0.0
30/04:00pm 25.7 21.6 6.3 29 10.1 W 17 22 9 12 1012.4 - 0.0
30/03:30pm 26.0 21.2 2.7 22 11.4 W 17 24 9 13 1012.5 - 0.0
30/03:00pm 25.6 20.8 4.7 26 10.5 W 19 26 10 14 1012.8 1012.6 0.0
30/02:30pm 25.5 22.5 6.2 29 10.0 W 11 17 6 9 1013.1 - 0.0
30/02:00pm 23.8 19.3 6.1 32 9.1 W 19 24 10 13 1013.7 - 0.0
30/01:30pm 24.6 20.3 5.4 29 9.7 W 17 22 9 12 1013.8 - 0.0
30/01:00pm 23.8 19.1 5.2 30 9.4 W 19 26 10 14 1014.2 - 0.0
30/12:30pm 24.4 20.2 7.5 34 8.9 W 19 28 10 15 1014.6 - 0.0
30/12:00pm 25.2 23.4 7.8 33 9.2 ESE 7 15 4 8 1014.9 1014.7 0.0
30/11:30am 23.2 20.9 7.3 36 8.3 ENE 9 20 5 11 1015.2 - 0.0
30/11:00am 22.1 21.2 9.3 44 6.9 N 4 9 2 5 1015.9 - 0.0
30/10:30am 20.8 19.5 10.0 50 5.8 ESE 7 13 4 7 1016.3 - 0.0
30/10:00am 19.8 19.0 11.0 57 4.8 ESE 6 9 3 5 1016.4 - 0.0
30/09:30am 18.7 16.9 11.0 61 4.2 SE 11 17 6 9 1016.4 - 0.0
30/09:00am 17.6 16.0 11.6 68 3.3 SE 11 17 6 9 1016.5 1016.4 0.0
30/08:30am 16.1 13.5 11.9 76 2.3 SSE 17 20 9 11 1016.6 - 0.0
30/08:00am 13.3 11.5 10.7 84 1.4 SE 11 15 6 8 1016.3 - 0.0
30/07:30am 10.8 9.5 9.2 90 0.8 ESE 6 9 3 5 1016.2 - 0.0
30/07:00am 7.8 5.7 6.7 93 0.5 ESE 7 9 4 5 1015.9 - 0.0
30/06:30am 6.7 4.0 5.7 93 0.4 E 9 11 5 6 1015.8 - 0.0
30/06:00am 8.5 5.9 7.6 94 0.4 SSW 11 13 6 7 1016.2 1016.1 0.0
30/05:30am 8.8 5.2 8.4 97 0.2 SSE 17 19 9 10 1015.8 - 0.0
30/05:00am 5.9 2.7 4.9 93 0.4 ESE 11 11 6 6 1015.2 - 0.0
30/04:30am 5.5 1.8 4.2 91 0.6 SE 13 15 7 8 1015.2 - 0.0
30/04:00am 6.0 2.7 4.5 90 0.6 SE 11 13 6 7 1015.3 - 0.0
30/03:30am 6.7 3.9 5.2 90 0.7 SE 9 9 5 5 1015.8 - 0.0
30/03:00am 7.4 4.7 5.7 89 0.8 E 9 11 5 6 1015.8 1015.7 0.0
30/02:30am 8.5 6.1 6.8 89 0.8 SSE 9 9 5 5 1016.0 - 0.0
30/02:00am 9.6 6.6 7.7 88 0.9 SSW 13 13 7 7 1016.4 - 0.0
30/01:30am 10.6 7.8 8.7 88 0.9 SSW 13 15 7 8 1016.8 - 0.0
30/01:00am 11.2 8.2 9.1 87 1.0 S 15 17 8 9 1017.0 - 0.0
30/12:30am 11.8 9.9 9.2 84 1.3 S 9 11 5 6 1017.3 - 0.0
30/12:00am 12.5 9.7 10.0 85 1.3 SSW 15 17 8 9 1017.6 1017.5 0.0
 
Date/Time
CDT
Temp
°C
App
Temp
°C
Dew
Point
Rel
Hum
%
Delta-T
°C
Wind Press
QNH
hPa
Press
MSL
hPa
Rain
since 9 am
mm
Dir
 
Spd
km/h
Gust
km/h
Spd
kts
Gust
kts
29/11:30pm 12.4 10.4 10.0 85 1.2 S 11 13 6 7 1017.9 - 0.0
29/11:00pm 12.3 10.2 9.7 84 1.3 S 11 13 6 7 1018.0 - 0.0
29/10:30pm 13.4 11.0 10.2 81 1.7 SSE 13 15 7 8 1017.7 - 0.0
29/10:00pm 14.5 12.3 10.9 79 1.9 SSE 13 15 7 8 1017.9 - 0.0
29/09:30pm 15.2 13.4 11.0 76 2.2 SE 11 17 6 9 1017.5 - 0.0
29/09:00pm 15.2 13.4 11.0 76 2.2 SSE 11 15 6 8 1017.1 1017.0 0.0
29/08:30pm 15.8 13.5 11.6 76 2.3 S 15 20 8 11 1017.0 - 0.0
29/08:00pm 17.2 13.6 11.7 70 3.0 SSW 22 33 12 18 1017.1 - 0.0
29/07:30pm 19.0 15.8 8.4 50 5.5 SSW 15 20 8 11 1016.7 - 0.0
29/07:00pm 21.3 17.3 9.2 46 6.5 SSW 20 28 11 15 1016.5 - 0.0
29/06:30pm 22.8 18.8 9.2 42 7.3 SSW 20 30 11 16 1015.9 - 0.0
29/06:00pm 22.9 19.6 11.6 49 6.3 SW 20 26 11 14 1015.8 1015.7 0.0
29/05:30pm 24.9 21.2 9.6 38 8.4 SW 19 26 10 14 1015.6 - 0.0
29/05:00pm 24.9 20.7 9.6 38 8.4 SW 22 26 12 14 1015.4 - 0.0
29/04:30pm 25.4 21.8 8.4 34 9.1 WSW 17 24 9 13 1015.3 - 0.0
29/04:00pm 26.3 22.7 8.3 32 9.7 WSW 17 22 9 12 1015.5 - 0.0
29/03:30pm 25.0 21.1 8.5 35 8.9 SW 19 26 10 14 1015.7 - 0.0
29/03:00pm 27.0 23.4 6.9 28 10.6 WSW 15 20 8 11 1016.0 1015.9 0.0
29/02:30pm 26.9 23.5 5.8 26 10.9 SW 13 19 7 10 1016.4 - 0.0
29/02:00pm 25.2 22.5 5.4 28 10.1 SW 9 17 5 9 1017.0 - 0.0
29/01:30pm 22.5 19.9 7.9 39 7.7 W 11 17 6 9 1017.6 - 0.0
29/01:00pm 21.9 18.7 10.1 47 6.4 WNW 17 28 9 15 1018.1 - 0.0
29/12:30pm 21.8 18.9 9.7 46 6.5 WNW 15 20 8 11 1018.4 - 0.0
29/12:00pm 21.3 17.7 10.5 50 5.9 WNW 20 28 11 15 1018.7 1018.6 0.0
29/11:30am 22.7 20.5 9.5 43 7.1 NNE 11 17 6 9 1018.8 - 0.0
29/11:00am 21.0 19.3 9.9 49 6.0 ENE 9 17 5 9 1019.1 - 0.0
29/10:30am 20.2 18.8 9.7 51 5.6 NE 7 13 4 7 1019.5 - 0.0
29/10:00am 19.3 17.6 10.0 55 5.0 NE 9 15 5 8 1019.9 - 0.0
29/09:30am 17.9 16.5 9.5 58 4.4 ESE 7 13 4 7 1020.0 - 0.0
29/09:00am 17.4 15.8 10.3 63 3.8 ESE 9 15 5 8 1020.2 1020.1 0.0
29/08:30am 15.4 13.7 10.0 70 2.8 ESE 9 13 5 7 1020.3 - 0.0
29/08:00am 12.1 10.1 8.8 80 1.6 ESE 9 11 5 6 1020.5 - 0.0
29/07:30am 8.8 6.8 7.1 89 0.8 E 7 9 4 5 1020.3 - 0.0
29/07:00am 6.2 3.0 5.2 93 0.4 ESE 11 11 6 6 1020.4 - 0.0
29/06:30am 4.3 0.8 3.3 93 0.4 ESE 11 11 6 6 1020.2 - 0.0
29/06:00am 4.4 0.8 3.2 92 0.5 ESE 11 13 6 7 1019.8 1019.7 0.0
29/05:30am 4.5 1.0 3.3 92 0.5 ESE 11 13 6 7 1019.7 - 0.0
29/05:00am 5.0 1.6 3.8 92 0.5 ESE 11 13 6 7 1019.8 - 0.0
29/04:30am 4.7 1.2 3.4 91 0.5 E 11 11 6 6 1019.7 - 0.0
29/04:00am 4.8 1.3 3.3 90 0.6 E 11 13 6 7 1019.8 - 0.0
29/03:30am 5.1 1.6 3.6 90 0.6 E 11 11 6 6 1019.9 - 0.0
29/03:00am 5.5 2.1 3.8 89 0.7 E 11 11 6 6 1019.8 1019.7 0.0
29/02:30am 6.2 2.9 4.5 89 0.7 E 11 11 6 6 1020.0 - 0.0
29/02:00am 6.5 3.6 4.7 88 0.8 ESE 9 11 5 6 1020.2 - 0.0
29/01:30am 7.1 3.9 5.1 87 0.9 SE 11 13 6 7 1020.4 - 0.0
29/01:00am 7.3 4.5 5.3 87 0.9 ESE 9 11 5 6 1020.5 - 0.0
29/12:30am 8.4 5.5 6.4 87 0.9 SE 11 13 6 7 1020.5 - 0.0
29/12:00am 9.5 6.8 7.4 87 1.0 S 11 13 6 7 1020.6 1020.5 0.0
 
Date/Time
CDT
Temp
°C
App
Temp
°C
Dew
Point
Rel
Hum
%
Delta-T
°C
Wind Press
QNH
hPa
Press
MSL
hPa
Rain
since 9 am
mm
Dir
 
Spd
km/h
Gust
km/h
Spd
kts
Gust
kts
28/11:30pm 10.1 7.5 7.7 85 1.2 S 11 13 6 7 1020.5 - 0.0
28/11:00pm 10.4 7.5 8.0 85 1.2 S 13 15 7 8 1020.4 - 0.0
28/10:30pm 10.8 8.3 8.2 84 1.3 S 11 13 6 7 1020.4 - 0.0
28/10:00pm 11.2 8.6 7.9 80 1.6 S 11 13 6 7 1020.4 - 0.0

Other Formats:

Comma delimited format used in spreadsheet applications
http://www.bom.gov.au/fwo/IDS60801/IDS60801.94685.axf

JavaScript Object Notation format (JSON) in row-major order
http://www.bom.gov.au/fwo/IDS60801/IDS60801.94685.json